Time;durP1;ratioP1;P1;durP2;ratioP2;P2;SDS_P1;SDS_P2;PMS_P1;PMS_P2;Temp;Humidity;BMP_temperature;BMP_pressure;BME280_temperature;BME280_humidity;BME280_pressure;Samples;Min_cycle;Max_cycle;Signal;HPM_P1;HPM_P2
2022/07/15 00:02:25;;;;;;;2.40;1.30;;;;;;;18.80;44.80;100749.75;4932692;28;20051;-73
2022/07/15 00:04:52;;;;;;;4.80;1.60;;;;;;;18.74;44.88;100757.41;4933078;28;20052;-72
2022/07/15 00:07:20;;;;;;;2.47;1.30;;;;;;;18.68;45.09;100752.50;4932944;28;20150;-72
2022/07/15 00:12:32;;;;;;;2.47;1.50;;;;;;;18.53;45.18;100746.44;4932587;28;20057;-73
2022/07/15 00:14:59;;;;;;;2.33;1.23;;;;;;;18.45;45.51;100749.69;4933292;28;20331;-72
2022/07/15 00:17:26;;;;;;;2.05;1.40;;;;;;;18.39;44.98;100720.66;4932211;29;20390;-72
2022/07/15 00:19:53;;;;;;;3.50;1.58;;;;;;;18.56;44.75;100741.72;4932934;28;20047;-74
2022/07/15 00:22:20;;;;;;;2.40;1.20;;;;;;;18.39;45.15;100706.38;4933496;28;20043;-75
2022/07/15 00:24:47;;;;;;;2.58;1.40;;;;;;;18.63;44.65;100744.81;4931645;28;20156;-73
2022/07/15 00:27:14;;;;;;;1.33;1.10;;;;;;;18.63;45.00;100746.63;4936090;28;20086;-74
2022/07/15 00:29:41;;;;;;;2.20;1.52;;;;;;;18.61;45.23;100741.38;4932521;28;20102;-74
2022/07/15 00:32:07;;;;;;;2.92;1.55;;;;;;;18.63;45.29;100747.50;4932971;28;20134;-74
2022/07/15 00:34:34;;;;;;;2.65;1.48;;;;;;;18.53;45.32;100739.25;4931973;28;20039;-73
2022/07/15 00:37:01;;;;;;;3.63;1.40;;;;;;;18.54;45.66;100743.66;4932390;28;20051;-72
2022/07/15 00:39:28;;;;;;;3.53;1.52;;;;;;;18.55;45.51;100742.69;4930477;29;20055;-72
2022/07/15 00:41:55;;;;;;;1.92;1.25;;;;;;;18.55;45.57;100734.63;4932609;28;20051;-74
2022/07/15 00:44:21;;;;;;;2.72;1.30;;;;;;;18.53;45.54;100731.19;4931534;29;20075;-73
2022/07/15 00:46:48;;;;;;;2.40;1.25;;;;;;;18.50;45.53;100747.53;4932060;28;20155;-71
2022/07/15 00:49:15;;;;;;;2.72;1.27;;;;;;;18.47;45.69;100744.19;4932133;28;20079;-72
2022/07/15 00:51:44;;;;;;;3.00;1.30;;;;;;;18.46;45.93;100754.06;4932127;28;20063;-73
2022/07/15 00:54:13;;;;;;;2.28;1.38;;;;;;;18.38;45.98;100751.13;4932387;29;20389;-72
2022/07/15 00:56:47;;;;;;;4.40;1.30;;;;;;;18.21;46.27;100724.69;4931272;28;20095;-74
2022/07/15 00:59:15;;;;;;;3.38;1.40;;;;;;;18.41;46.02;100758.09;4931587;28;20504;-74
2022/07/15 01:01:44;;;;;;;2.72;1.42;;;;;;;18.37;46.10;100751.22;4932352;28;20048;-73
2022/07/15 01:04:12;;;;;;;4.10;1.45;;;;;;;18.31;46.40;100757.03;4931850;28;20131;-73
2022/07/15 01:06:39;;;;;;;4.55;1.40;;;;;;;18.05;46.99;100732.13;4930736;28;20055;-73
2022/07/15 01:09:06;;;;;;;3.60;1.38;;;;;;;18.10;46.96;100751.44;4930570;28;20547;-75
2022/07/15 01:11:37;;;;;;;2.17;1.30;;;;;;;17.92;47.41;100740.22;4931988;28;20054;-72
2022/07/15 01:14:03;;;;;;;;;;;;;;;17.99;47.37;100757.53;4932783;28;20048;-72
2022/07/15 01:16:30;;;;;;;3.65;1.42;;;;;;;17.96;47.61;100756.91;4932011;28;19923;-71
2022/07/15 01:18:57;;;;;;;3.47;1.60;;;;;;;17.94;47.55;100769.56;4931477;28;20492;-72
2022/07/15 01:21:24;;;;;;;2.90;1.50;;;;;;;17.87;47.80;100759.28;4931147;28;20059;-74
2022/07/15 01:23:51;;;;;;;5.45;1.52;;;;;;;17.92;47.69;100763.47;4931398;28;20500;-73
2022/07/15 01:26:17;;;;;;;4.63;1.70;;;;;;;17.84;47.99;100764.00;4932330;28;20112;-73
2022/07/15 01:28:44;;;;;;;4.03;1.52;;;;;;;17.73;48.40;100771.94;4931211;28;20059;-75
2022/07/15 01:31:11;;;;;;;2.45;1.50;;;;;;;17.77;49.01;100779.66;4931767;28;20044;-73
2022/07/15 01:33:38;;;;;;;2.47;1.38;;;;;;;17.79;48.61;100767.00;4931838;28;20051;-73
2022/07/15 01:36:06;;;;;;;3.33;1.85;;;;;;;17.77;48.41;100762.75;4926583;29;20147;-73
2022/07/15 01:38:33;;;;;;;3.50;1.73;;;;;;;17.77;48.60;100776.13;4929902;28;20059;-74
2022/07/15 01:41:15;;;;;;;2.85;1.60;;;;;;;17.72;48.80;100764.88;4932595;28;20051;-73
2022/07/15 01:43:42;;;;;;;4.18;1.40;;;;;;;17.74;49.01;100779.88;4932186;28;20040;-74
2022/07/15 01:46:09;;;;;;;3.00;1.55;;;;;;;17.77;48.96;100778.81;4932187;28;20044;-73
2022/07/15 01:51:23;;;;;;;2.55;1.63;;;;;;;17.75;49.25;100775.38;4931817;28;20051;-76
2022/07/15 01:53:49;;;;;;;3.03;1.38;;;;;;;17.65;49.50;100752.88;4931904;28;20107;-74
2022/07/15 01:56:16;;;;;;;3.40;1.20;;;;;;;17.80;49.55;100778.56;4937975;28;20048;-73
2022/07/15 01:58:43;;;;;;;3.97;1.40;;;;;;;17.81;49.37;100775.78;4922486;28;20050;-72
2022/07/15 02:01:09;;;;;;;2.83;1.50;;;;;;;17.66;49.57;100776.00;4932110;28;20099;-75
2022/07/15 02:03:36;;;;;;;3.95;1.58;;;;;;;17.36;49.11;100738.81;4932003;28;20516;-73
2022/07/15 02:06:03;;;;;;;5.20;2.05;;;;;;;17.52;49.51;100779.63;4931323;28;20044;-75
2022/07/15 02:08:30;;;;;;;3.22;1.60;;;;;;;17.47;49.14;100779.94;4930164;28;20047;-71
2022/07/15 02:10:57;;;;;;;1.63;1.20;;;;;;;17.31;49.88;100757.03;4932369;28;20094;-72
2022/07/15 02:13:24;;;;;;;3.60;1.30;;;;;;;17.43;49.62;100775.78;4937595;29;20051;-72
2022/07/15 02:15:50;;;;;;;4.07;1.40;;;;;;;17.40;49.76;100767.97;4931544;28;20043;-75
2022/07/15 02:18:17;;;;;;;4.22;1.42;;;;;;;17.41;50.10;100776.84;4931172;28;20044;-75
2022/07/15 02:20:45;;;;;;;4.63;1.80;;;;;;;17.40;49.97;100765.28;4931194;28;20453;-72
2022/07/15 02:23:11;;;;;;;2.72;1.60;;;;;;;17.42;49.96;100775.88;4930567;28;20059;-72
2022/07/15 02:25:38;;;;;;;4.45;1.60;;;;;;;17.39;50.35;100778.78;4933552;29;20488;-72
2022/07/15 02:28:06;;;;;;;5.28;1.60;;;;;;;17.38;50.43;100772.56;4931280;28;20040;-73
2022/07/15 02:30:36;;;;;;;4.43;1.63;;;;;;;17.32;50.90;100774.78;4930695;28;20063;-72
2022/07/15 02:33:03;;;;;;;4.33;1.83;;;;;;;17.29;51.01;100772.34;4928548;28;20452;-72
2022/07/15 02:35:31;;;;;;;5.57;1.80;;;;;;;17.22;51.06;100765.69;4934710;28;20471;-72
2022/07/15 02:37:59;;;;;;;2.83;1.70;;;;;;;17.21;51.28;100775.53;4934110;28;20048;-75
2022/07/15 02:40:27;;;;;;;4.05;1.42;;;;;;;17.16;51.20;100772.31;4934553;28;20052;-72
2022/07/15 02:42:55;;;;;;;2.65;1.45;;;;;;;17.25;50.94;100778.88;4935105;28;20047;-73
2022/07/15 02:45:24;;;;;;;5.18;1.95;;;;;;;17.36;50.50;100771.81;4934550;28;20059;-74
2022/07/15 02:47:51;;;;;;;4.80;1.63;;;;;;;17.45;50.21;100778.34;4934428;28;20048;-72
2022/07/15 02:50:19;;;;;;;3.08;1.30;;;;;;;17.38;50.34;100769.88;4935657;28;20099;-72
2022/07/15 02:52:46;;;;;;;3.40;1.38;;;;;;;17.43;50.22;100777.59;4934324;28;20043;-71
2022/07/15 02:55:14;;;;;;;2.63;1.40;;;;;;;17.45;50.33;100783.72;4934357;28;20056;-74
2022/07/15 02:57:41;;;;;;;4.85;1.80;;;;;;;17.41;50.36;100776.84;4934798;28;20055;-76
2022/07/15 03:00:11;;;;;;;3.38;1.50;;;;;;;17.40;50.93;100792.06;4933300;28;20058;-72
2022/07/15 03:02:38;;;;;;;5.43;1.70;;;;;;;17.37;50.97;100788.72;4933661;28;20069;-72
2022/07/15 03:05:06;;;;;;;4.55;2.22;;;;;;;17.36;51.01;100797.72;4934745;28;20108;-73
2022/07/15 03:07:33;;;;;;;3.65;1.63;;;;;;;17.30;50.96;100799.00;4933687;28;20055;-73
2022/07/15 03:10:00;;;;;;;4.20;1.45;;;;;;;17.26;51.07;100804.66;4933903;28;20063;-72
2022/07/15 03:12:26;;;;;;;2.72;1.48;;;;;;;17.12;51.51;100808.28;4931958;28;20052;-73
2022/07/15 03:14:53;;;;;;;2.65;1.33;;;;;;;17.07;51.60;100813.94;4934567;28;20044;-73
2022/07/15 03:17:20;;;;;;;3.17;1.58;;;;;;;16.95;51.76;100812.09;4933500;28;20122;-73
2022/07/15 03:19:47;;;;;;;3.22;1.40;;;;;;;16.88;52.16;100805.41;4933529;28;20095;-72
2022/07/15 03:22:13;;;;;;;2.97;1.35;;;;;;;16.99;52.17;100816.28;4933589;28;20048;-74
2022/07/15 03:24:40;;;;;;;3.15;1.73;;;;;;;17.03;51.75;100824.94;4933893;28;20052;-73
2022/07/15 03:27:08;;;;;;;3.25;1.50;;;;;;;17.06;52.04;100822.94;4936596;28;20560;-72
2022/07/15 03:29:35;;;;;;;3.78;1.38;;;;;;;16.91;52.23;100794.53;4932936;28;20091;-72
2022/07/15 03:32:02;;;;;;;2.63;1.40;;;;;;;17.03;52.15;100811.56;4933463;28;20568;-74
2022/07/15 03:34:29;;;;;;;5.47;1.70;;;;;;;16.98;52.26;100811.03;4932923;28;20067;-75
2022/07/15 03:36:55;;;;;;;3.10;1.92;;;;;;;17.01;52.27;100818.81;4932943;28;20052;-75
2022/07/15 03:39:22;;;;;;;4.72;1.40;;;;;;;17.12;52.15;100835.03;4933341;28;20086;-72
2022/07/15 03:41:49;;;;;;;2.45;1.23;;;;;;;17.09;52.04;100825.41;4934304;28;20048;-75
2022/07/15 03:44:17;;;;;;;3.92;1.48;;;;;;;16.98;52.06;100811.03;4933330;28;20058;-73
2022/07/15 03:46:45;;;;;;;4.82;1.52;;;;;;;16.97;52.27;100820.88;4931863;28;20063;-73
2022/07/15 03:49:13;;;;;;;2.38;1.40;;;;;;;16.90;52.56;100824.03;4933224;28;20055;-75
2022/07/15 03:51:39;;;;;;;1.75;1.33;;;;;;;16.96;52.49;100845.91;4933232;28;20147;-74
2022/07/15 03:54:07;;;;;;;3.85;1.63;;;;;;;16.89;53.08;100841.91;4933520;28;20055;-74
2022/07/15 03:56:34;;;;;;;5.00;1.50;;;;;;;16.85;52.87;100843.06;4932437;28;20047;-73
2022/07/15 03:59:00;;;;;;;3.15;1.63;;;;;;;16.65;53.21;100822.16;4933404;28;20063;-72
2022/07/15 04:01:27;;;;;;;3.72;1.23;;;;;;;16.83;53.42;100848.53;4933382;28;20064;-73
2022/07/15 04:03:54;;;;;;;4.93;1.45;;;;;;;16.79;53.46;100841.69;4933483;28;20043;-73
2022/07/15 04:06:22;;;;;;;4.72;1.50;;;;;;;16.80;53.34;100845.22;4932984;28;20464;-72
2022/07/15 04:08:49;;;;;;;3.75;1.38;;;;;;;16.75;53.51;100848.19;4931522;28;20386;-74
2022/07/15 04:11:16;;;;;;;2.67;1.23;;;;;;;16.72;53.52;100847.50;4933342;28;20458;-72
2022/07/15 04:13:43;;;;;;;3.38;1.50;;;;;;;16.63;54.37;100848.13;4925718;28;20484;-72
2022/07/15 04:16:13;;;;;;;2.80;1.35;;;;;;;16.56;54.36;100836.91;4933558;28;20419;-71
2022/07/15 04:18:41;;;;;;;3.95;1.27;;;;;;;16.58;54.25;100845.69;4931158;28;20048;-74
2022/07/15 04:21:08;;;;;;;3.10;1.40;;;;;;;16.56;54.44;100841.41;4938300;28;20055;-73
2022/07/15 04:23:35;;;;;;;3.50;1.50;;;;;;;16.47;54.74;100822.34;4933338;28;20134;-73
2022/07/15 04:26:02;;;;;;;1.88;1.50;;;;;;;16.62;54.73;100849.03;4936126;28;20044;-72
2022/07/15 04:28:29;;;;;;;3.90;1.58;;;;;;;16.63;54.59;100848.13;4931707;28;20052;-71
2022/07/15 04:30:56;;;;;;;2.80;1.40;;;;;;;16.69;54.46;100843.22;4927232;28;20122;-71
2022/07/15 04:33:23;;;;;;;2.85;1.40;;;;;;;16.75;54.50;100858.00;4933100;28;20058;-74
2022/07/15 04:35:49;;;;;;;3.60;1.58;;;;;;;16.72;54.23;100847.50;4924170;29;20057;-74
2022/07/15 04:38:17;;;;;;;2.90;1.52;;;;;;;16.72;54.93;100851.03;4931456;28;20063;-74
2022/07/15 04:40:44;;;;;;;2.35;1.40;;;;;;;16.81;54.91;100853.13;4923696;28;20056;-73
2022/07/15 04:43:11;;;;;;;4.88;1.70;;;;;;;16.84;54.65;100847.56;4932109;28;20075;-73
2022/07/15 04:45:38;;;;;;;2.95;1.40;;;;;;;16.91;54.88;100848.03;4932115;28;20054;-73
2022/07/15 04:50:45;;;;;;;3.28;1.73;;;;;;;16.99;54.02;100859.09;4931307;28;20056;-71
2022/07/15 04:50:52;;;;;;;3.65;1.35;;;;;;;17.03;53.72;100857.03;4931989;28;20071;-71
2022/07/15 04:53:20;;;;;;;3.05;1.38;;;;;;;17.07;54.26;100859.44;4932981;28;20051;-73
2022/07/15 04:55:47;;;;;;;1.88;1.20;;;;;;;17.15;53.98;100856.25;4932699;28;20102;-72
2022/07/15 04:58:15;;;;;;;3.53;1.40;;;;;;;17.20;53.68;100856.78;4931521;28;20087;-72
2022/07/15 05:00:45;;;;;;;3.20;1.20;;;;;;;17.11;53.85;100834.19;4931472;28;20067;-72
2022/07/15 05:03:13;;;;;;;3.47;1.23;;;;;;;17.28;53.56;100853.59;4932576;28;20055;-72
2022/07/15 05:05:41;;;;;;;2.63;1.23;;;;;;;17.31;53.54;100861.44;4932721;28;20051;-72
2022/07/15 05:08:09;;;;;;;4.43;1.50;;;;;;;17.40;53.58;100866.16;4931437;28;20047;-73
2022/07/15 05:10:36;;;;;;;3.80;1.65;;;;;;;17.44;53.20;100865.84;4932220;28;20052;-72
2022/07/15 05:13:03;;;;;;;3.00;1.30;;;;;;;17.47;53.18;100862.13;4931676;28;20456;-72
2022/07/15 05:15:30;;;;;;;5.90;1.13;;;;;;;17.55;53.44;100881.16;4932705;28;20048;-71
2022/07/15 05:17:57;;;;;;;7.18;1.83;;;;;;;17.47;52.97;100860.25;4931572;28;20058;-72
2022/07/15 05:20:24;;;;;;;3.72;1.60;;;;;;;17.53;53.20;100878.59;4931460;28;20044;-75
2022/07/15 05:22:51;;;;;;;5.97;1.90;;;;;;;17.54;53.53;100883.00;4930461;28;20052;-74
2022/07/15 05:25:17;;;;;;;4.78;1.60;;;;;;;17.42;53.37;100859.75;4936088;28;20058;-72
2022/07/15 05:27:44;;;;;;;3.03;1.38;;;;;;;17.48;53.69;100869.16;4932237;28;20054;-72
2022/07/15 05:30:18;;;;;;;2.45;1.58;;;;;;;17.43;53.87;100860.59;4933272;28;20059;-73
2022/07/15 05:32:45;;;;;;;2.72;1.50;;;;;;;17.47;53.78;100862.13;4933632;28;20303;-71
2022/07/15 05:35:14;;;;;;;4.00;1.80;;;;;;;17.53;53.92;100883.09;4933126;28;20055;-72
2022/07/15 05:37:42;;;;;;;3.25;1.40;;;;;;;17.48;54.00;100869.16;4932305;28;20051;-73
2022/07/15 05:40:09;;;;;;;3.85;1.70;;;;;;;17.61;54.65;100885.25;4932921;28;20075;-73
2022/07/15 05:42:38;;;;;;;6.38;1.63;;;;;;;17.76;54.08;100895.81;4931038;28;20059;-72
2022/07/15 05:45:05;;;;;;;3.45;1.38;;;;;;;17.84;54.04;100897.94;4932319;28;20464;-75
2022/07/15 05:47:32;;;;;;;9.23;1.85;;;;;;;17.90;53.31;100902.03;4930917;28;20071;-73
2022/07/15 05:49:59;;;;;;;5.38;1.52;;;;;;;17.96;53.54;100901.59;4928444;28;20063;-73
2022/07/15 05:52:26;;;;;;;4.10;1.17;;;;;;;18.03;53.45;100910.94;4930297;28;20509;-71
2022/07/15 05:54:53;;;;;;;4.35;1.73;;;;;;;18.12;53.81;100912.97;4933181;28;20054;-73
2022/07/15 05:57:19;;;;;;;5.68;1.52;;;;;;;18.27;53.17;100919.91;4930784;28;20056;-76
2022/07/15 05:59:46;;;;;;;4.70;1.40;;;;;;;18.33;53.24;100911.44;4930843;28;20040;-74
2022/07/15 06:02:13;;;;;;;3.50;1.10;;;;;;;18.38;53.24;100922.72;4924842;28;20504;-72
2022/07/15 06:04:41;;;;;;;5.53;1.73;;;;;;;18.38;53.25;100924.53;4929473;28;20043;-73
2022/07/15 06:07:08;;;;;;;4.72;1.70;;;;;;;18.28;53.40;100913.59;4931330;29;20048;-72
2022/07/15 06:09:35;;;;;;;3.22;1.50;;;;;;;18.35;53.41;100925.63;4933779;28;20501;-73
2022/07/15 06:12:02;;;;;;;5.13;1.73;;;;;;;18.39;53.40;100926.25;4935941;28;20062;-73
2022/07/15 06:14:29;;;;;;;4.75;1.50;;;;;;;18.46;53.39;100922.16;4934424;28;20055;-74
2022/07/15 06:17:03;;;;;;;4.05;1.40;;;;;;;18.67;52.60;100922.47;4935387;28;20051;-73
2022/07/15 06:19:30;;;;;;;6.25;1.52;;;;;;;18.96;53.03;100931.94;4930789;29;20106;-72
2022/07/15 06:21:59;;;;;;;5.53;1.38;;;;;;;19.12;51.45;100911.06;4931993;28;20433;-72
2022/07/15 06:24:26;;;;;;;7.57;2.20;;;;;;;19.36;51.35;100932.53;4932460;28;20504;-73
2022/07/15 06:26:53;;;;;;;3.40;1.60;;;;;;;19.16;52.15;100901.81;4938230;28;20059;-75
2022/07/15 06:29:20;;;;;;;3.85;1.30;;;;;;;19.22;51.71;100925.50;4933541;28;20496;-73
2022/07/15 06:31:48;;;;;;;3.53;1.48;;;;;;;19.11;51.63;100901.28;4934346;28;20059;-73
2022/07/15 06:34:15;;;;;;;3.85;1.33;;;;;;;19.26;51.78;100924.31;4934580;28;20508;-72
2022/07/15 06:36:42;;;;;;;2.33;1.17;;;;;;;19.09;52.00;100927.38;4928306;28;20043;-74
2022/07/15 06:39:10;;;;;;;3.85;1.30;;;;;;;19.33;51.53;100930.09;4931429;28;20048;-73
2022/07/15 06:41:37;;;;;;;1.83;1.17;;;;;;;19.82;50.35;100932.63;4933526;28;20509;-75
2022/07/15 06:44:05;;;;;;;2.45;1.40;;;;;;;20.09;49.90;100924.25;4933989;28;20059;-73
2022/07/15 06:46:31;;;;;;;4.43;1.30;;;;;;;20.36;49.00;100921.22;4933064;28;20047;-72
2022/07/15 06:48:59;;;;;;;1.92;1.13;;;;;;;20.44;49.64;100929.56;4933136;28;20098;-73
2022/07/15 06:51:26;;;;;;;3.90;1.50;;;;;;;20.13;49.60;100919.50;4933994;28;20114;-73
2022/07/15 06:53:54;;;;;;;5.75;1.30;;;;;;;19.79;51.06;100921.25;4933701;28;20445;-72
2022/07/15 06:56:20;;;;;;;5.00;1.35;;;;;;;19.74;51.92;100920.75;4933344;28;20103;-73
2022/07/15 06:58:47;;;;;;;3.67;1.20;;;;;;;19.82;50.72;100919.19;4932939;28;20048;-71
2022/07/15 07:01:14;;;;;;;5.10;1.20;;;;;;;19.75;51.06;100903.66;4934014;28;20051;-74
2022/07/15 07:03:41;;;;;;;2.35;1.10;;;;;;;19.95;50.96;100928.00;4933884;28;20052;-74
2022/07/15 07:06:26;;;;;;;4.50;1.10;;;;;;;20.15;50.90;100917.50;4936467;28;20143;-73
2022/07/15 07:08:53;;;;;;;3.72;1.38;;;;;;;20.21;50.10;100912.53;4933338;28;20082;-73
2022/07/15 07:11:20;;;;;;;4.15;1.23;;;;;;;20.08;50.11;100908.22;4933527;28;20115;-74
2022/07/15 07:13:48;;;;;;;4.45;1.10;;;;;;;20.17;50.63;100899.44;4934117;28;20063;-73
2022/07/15 07:16:15;;;;;;;2.55;1.08;;;;;;;20.47;49.81;100901.53;4934365;28;20075;-74
2022/07/15 07:18:45;;;;;;;4.00;1.48;;;;;;;20.89;49.01;100926.84;4924334;28;20102;-73
2022/07/15 07:21:13;;;;;;;3.88;1.17;;;;;;;20.77;48.67;100925.16;4933679;28;20091;-73
2022/07/15 07:23:40;;;;;;;3.95;1.10;;;;;;;20.68;48.38;100929.41;4932949;28;20106;-73
2022/07/15 07:26:09;;;;;;;8.30;1.92;;;;;;;20.59;49.15;100927.47;4936818;28;20095;-72
2022/07/15 07:28:38;;;;;;;7.82;1.52;;;;;;;20.52;49.22;100904.72;4932032;28;20052;-72
2022/07/15 07:31:06;;;;;;;8.75;1.88;;;;;;;20.92;48.41;100923.91;4928859;28;20059;-73
2022/07/15 07:33:33;;;;;;;8.23;1.33;;;;;;;21.23;47.51;100915.03;4933279;28;20075;-73
2022/07/15 07:36:00;;;;;;;4.95;1.30;;;;;;;21.52;46.92;100919.81;4933453;28;20456;-72
2022/07/15 07:38:26;;;;;;;6.50;1.40;;;;;;;21.48;46.62;100942.59;4932473;28;20127;-75
2022/07/15 07:40:53;;;;;;;3.17;1.40;;;;;;;21.00;48.48;100930.34;4927153;28;20386;-73
2022/07/15 07:43:20;;;;;;;5.20;1.40;;;;;;;20.76;48.32;100932.38;4933572;28;20048;-74
2022/07/15 07:45:47;;;;;;;4.97;1.52;;;;;;;20.55;48.52;100936.78;4933783;28;20048;-74
2022/07/15 07:48:14;;;;;;;2.38;1.25;;;;;;;20.48;48.78;100931.00;4932721;28;20119;-72
2022/07/15 07:50:41;;;;;;;4.63;1.67;;;;;;;20.36;49.12;100929.31;4932815;28;20456;-73
2022/07/15 07:53:08;;;;;;;5.03;1.60;;;;;;;20.28;48.99;100903.00;4933480;28;20071;-74
2022/07/15 07:55:34;;;;;;;2.13;1.48;;;;;;;20.43;49.30;100930.53;4931656;29;20448;-73
2022/07/15 07:58:02;;;;;;;3.80;1.33;;;;;;;20.59;49.17;100916.72;4932196;28;20058;-74
2022/07/15 08:00:30;;;;;;;3.95;2.00;;;;;;;20.77;48.87;100933.22;4932855;28;20074;-72
2022/07/15 08:02:58;;;;;;;7.85;2.05;;;;;;;21.03;48.53;100929.25;4937274;28;20043;-73
2022/07/15 08:05:28;;;;;;;4.55;1.52;;;;;;;21.12;47.99;100915.00;4934694;28;20267;-71
2022/07/15 08:08:15;;;;;;;5.03;1.80;;;;;;;21.69;46.51;100924.63;4930528;29;20055;-72
2022/07/15 08:10:45;;;;;;;4.47;1.73;;;;;;;21.84;46.34;100928.72;4933414;28;20039;-74
2022/07/15 08:13:22;;;;;;;4.68;1.95;;;;;;;21.95;45.22;100920.53;4932678;28;20052;-73
2022/07/15 08:15:50;;;;;;;5.57;1.83;;;;;;;21.97;45.95;100910.47;4929188;28;20044;-72
2022/07/15 08:18:27;;;;;;;2.67;1.45;;;;;;;22.58;44.09;100917.78;4931037;28;20464;-73
2022/07/15 08:20:54;;;;;;;4.60;1.80;;;;;;;23.14;42.79;100918.06;4932851;28;20522;-71
2022/07/15 08:23:21;;;;;;;2.90;1.60;;;;;;;23.61;41.85;100921.81;4932274;28;20043;-72
2022/07/15 08:25:50;;;;;;;5.32;1.60;;;;;;;23.72;41.56;100899.22;4935783;28;20052;-72
2022/07/15 08:28:17;;;;;;;3.85;1.63;;;;;;;24.02;41.70;100914.38;4931998;28;20406;-76
2022/07/15 08:30:45;;;;;;;4.38;1.58;;;;;;;23.72;40.75;100902.78;4930213;28;20084;-72
2022/07/15 08:33:13;;;;;;;4.32;1.90;;;;;;;23.16;42.67;100921.50;4933000;28;20056;-73
2022/07/15 08:35:41;;;;;;;4.63;1.98;;;;;;;22.45;43.48;100896.41;4932835;28;20055;-73
2022/07/15 08:38:09;;;;;;;4.88;1.70;;;;;;;22.26;44.17;100916.06;4933497;28;20366;-73
2022/07/15 08:40:37;;;;;;;3.85;1.80;;;;;;;22.06;43.86;100903.47;4931637;28;20519;-72
2022/07/15 08:43:09;;;;;;;5.35;1.80;;;;;;;22.12;44.17;100915.56;4932413;28;20134;-73
2022/07/15 08:45:37;;;;;;;5.45;2.00;;;;;;;21.81;44.23;100918.19;4932605;28;20142;-72
2022/07/15 08:48:06;;;;;;;4.25;1.75;;;;;;;21.75;44.72;100926.78;4931500;28;20056;-73
2022/07/15 08:50:34;;;;;;;4.32;1.85;;;;;;;22.19;44.27;100916.75;4931888;28;20055;-74
2022/07/15 08:53:02;;;;;;;3.88;2.10;;;;;;;22.54;43.17;100919.03;4932864;28;20048;-72
2022/07/15 08:55:29;;;;;;;4.63;1.83;;;;;;;22.22;43.63;100898.44;4932260;28;20142;-73
2022/07/15 08:57:57;;;;;;;7.13;1.80;;;;;;;22.17;43.90;100924.13;4931307;28;20537;-72
2022/07/15 09:00:28;;;;;;;3.58;1.85;;;;;;;21.94;44.57;100923.38;4932379;28;20115;-72
2022/07/15 09:02:59;;;;;;;5.28;1.92;;;;;;;21.94;44.36;100913.44;4931855;28;20143;-71
2022/07/15 09:05:29;;;;;;;6.80;1.98;;;;;;;21.87;44.59;100933.00;4931884;28;20066;-74
2022/07/15 09:08:00;;;;;;;4.50;2.40;;;;;;;21.59;43.53;100912.91;4931461;28;20049;-72
2022/07/15 09:10:46;;;;;;;4.47;2.20;;;;;;;21.66;44.09;100928.44;4931495;28;20471;-74
2022/07/15 09:13:22;;;;;;;4.88;2.63;;;;;;;21.59;43.74;100929.06;4930071;28;20059;-73
2022/07/15 09:15:49;;;;;;;4.95;2.70;;;;;;;21.57;43.38;100937.28;4932287;28;20067;-73
2022/07/15 09:18:25;;;;;;;3.40;2.40;;;;;;;21.45;42.96;100932.06;4931524;28;20054;-72
2022/07/15 09:20:52;;;;;;;3.67;2.25;;;;;;;21.41;43.15;100909.09;4929466;28;20048;-75
2022/07/15 09:23:29;;;;;;;6.32;2.50;;;;;;;21.48;42.71;100921.91;4933521;28;20139;-73
2022/07/15 09:26:20;;;;;;;3.35;2.60;;;;;;;21.86;42.14;100923.19;4935218;28;20075;-72
2022/07/15 09:28:49;;;;;;;5.05;2.30;;;;;;;21.98;41.51;100912.19;4928772;28;20511;-75
2022/07/15 09:34:15;;;;;;;5.75;2.60;;;;;;;21.61;43.65;100929.81;4928470;28;20060;-73
2022/07/15 09:36:50;;;;;;;4.40;2.60;;;;;;;21.39;43.39;100924.53;4930404;28;20409;-73
2022/07/15 09:39:18;;;;;;;4.35;2.47;;;;;;;21.64;42.58;100921.47;4931393;28;20051;-73
2022/07/15 09:41:46;;;;;;;4.90;2.67;;;;;;;22.08;42.11;100928.47;4930971;28;20163;-72
2022/07/15 09:44:21;;;;;;;5.07;2.58;;;;;;;22.22;40.73;100901.13;4931673;28;20533;-73
2022/07/15 09:46:53;;;;;;;6.03;2.65;;;;;;;22.42;40.13;100926.38;4931934;28;20055;-73
2022/07/15 09:49:23;;;;;;;3.45;2.50;;;;;;;22.10;40.43;100915.69;4930807;28;20437;-72
2022/07/15 09:51:58;;;;;;;4.93;2.88;;;;;;;21.76;41.05;100933.88;4931680;28;20103;-74
2022/07/15 09:54:34;;;;;;;3.67;2.80;;;;;;;21.55;41.91;100930.34;4931267;28;20048;-73
2022/07/15 09:57:03;;;;;;;5.68;2.80;;;;;;;21.54;42.47;100925.94;4931479;28;20044;-73
2022/07/15 09:59:30;;;;;;;4.63;3.03;;;;;;;21.63;41.73;100930.53;4930379;28;20051;-73
2022/07/15 10:02:05;;;;;;;3.72;3.10;;;;;;;21.61;42.36;100938.75;4932271;29;20052;-72
2022/07/15 10:04:32;;;;;;;4.03;3.30;;;;;;;21.54;41.74;100936.72;4929782;28;20054;-74
2022/07/15 10:06:59;;;;;;;5.75;3.05;;;;;;;21.60;41.19;100917.31;4931612;28;20500;-72
2022/07/15 10:09:46;;;;;;;5.32;3.17;;;;;;;21.68;41.85;100912.13;4931943;28;20044;-71
2022/07/15 10:12:21;;;;;;;4.70;3.28;;;;;;;21.61;41.62;100922.56;4932248;28;20385;-72
2022/07/15 10:15:18;;;;;;;5.72;2.90;;;;;;;21.87;42.03;100927.59;4930340;28;20058;-72
2022/07/15 10:18:00;;;;;;;5.03;2.97;;;;;;;22.20;40.07;100916.59;4929879;28;20119;-72
2022/07/15 10:21:13;;;;;;;6.82;3.00;;;;;;;22.01;40.75;100917.38;4929484;28;20530;-73
2022/07/15 10:23:56;;;;;;;6.50;2.95;;;;;;;22.00;40.87;100918.34;4914983;28;20043;-72
2022/07/15 10:26:50;;;;;;;4.40;2.50;;;;;;;22.14;39.85;100924.38;4932032;28;20048;-73
2022/07/15 10:29:17;;;;;;;3.78;2.53;;;;;;;22.38;39.54;100911.44;4929490;28;20082;-75
2022/07/15 10:31:56;;;;;;;4.93;2.72;;;;;;;22.86;38.63;100899.97;4931846;28;20107;-74
2022/07/15 10:34:23;;;;;;;6.20;3.05;;;;;;;23.14;37.99;100893.75;4928576;28;20083;-72
2022/07/15 10:36:51;;;;;;;6.53;2.80;;;;;;;23.20;37.75;100908.56;4935492;28;20051;-75
2022/07/15 10:39:21;;;;;;;5.72;2.90;;;;;;;23.00;38.66;100900.44;4930741;28;20051;-74
2022/07/15 10:41:59;;;;;;;5.60;3.00;;;;;;;22.62;39.61;100911.97;4931033;28;20052;-74
2022/07/15 10:44:28;;;;;;;4.60;2.67;;;;;;;22.57;39.50;100906.13;4930563;28;20437;-72
2022/07/15 10:47:13;;;;;;;4.10;2.47;;;;;;;22.75;39.41;100907.19;4931429;28;20540;-71
2022/07/15 10:49:42;;;;;;;4.78;2.80;;;;;;;22.64;37.80;100907.28;4929707;28;20576;-74
2022/07/15 10:52:39;;;;;;;7.28;2.78;;;;;;;22.36;38.40;100910.72;4927849;28;20052;-72
2022/07/15 10:55:06;;;;;;;6.05;3.00;;;;;;;22.07;37.66;100905.16;4933359;28;20057;-73
2022/07/15 10:57:39;;;;;;;5.32;2.80;;;;;;;22.12;37.86;100905.63;4935277;28;20528;-72
2022/07/15 11:00:26;;;;;;;4.13;2.38;;;;;;;22.03;38.08;100856.06;4926482;29;20062;-74
2022/07/15 11:03:14;;;;;;;7.10;2.58;;;;;;;22.38;37.60;100889.84;4934875;28;20063;-71
2022/07/15 11:05:47;;;;;;;3.85;2.28;;;;;;;22.37;37.26;100897.09;4934902;28;20411;-73
2022/07/15 11:08:36;;;;;;;3.30;2.40;;;;;;;22.75;37.88;100888.28;4934003;28;20472;-74
2022/07/15 11:11:58;;;;;;;7.50;2.55;;;;;;;23.17;35.94;100884.53;4933759;29;20058;-72
2022/07/15 11:14:54;;;;;;;4.50;2.50;;;;;;;23.03;36.02;100885.78;4930860;28;20056;-72
2022/07/15 11:17:39;;;;;;;5.10;2.00;;;;;;;22.65;36.76;100873.91;4934073;28;20055;-73
2022/07/15 11:20:11;;;;;;;4.20;2.65;;;;;;;22.50;37.84;100879.81;4928940;28;20134;-73
2022/07/15 11:22:45;;;;;;;5.47;2.83;;;;;;;22.54;38.15;100868.59;4932956;28;20504;-75
2022/07/15 11:25:25;;;;;;;4.85;2.40;;;;;;;23.19;37.16;100871.72;4937431;28;20043;-73
2022/07/15 11:27:55;;;;;;;3.42;2.40;;;;;;;23.92;35.38;100868.44;4926520;28;20659;-73
2022/07/15 11:30:21;;;;;;;6.55;2.38;;;;;;;24.33;35.20;100856.34;4934150;28;20773;-72
2022/07/15 11:32:56;;;;;;;3.80;2.33;;;;;;;24.46;34.38;100856.00;4933543;28;20131;-73
2022/07/15 11:35:23;;;;;;;8.35;2.67;;;;;;;24.30;35.26;100870.16;4933407;28;20060;-73
2022/07/15 11:37:57;;;;;;;4.60;2.08;;;;;;;23.95;35.26;100868.13;4932768;28;20091;-73
2022/07/15 11:46:04;;;;;;;4.65;2.15;;;;;;;23.49;36.56;100868.03;4928522;28;20058;-72
2022/07/15 11:48:36;;;;;;;4.63;2.17;;;;;;;23.23;36.40;100860.50;4931632;28;20616;-73
2022/07/15 11:51:05;;;;;;;4.07;2.42;;;;;;;23.15;36.89;100863.06;4933230;28;20047;-72